Time;durP1;ratioP1;P1;durP2;ratioP2;P2;SDS_P1;SDS_P2;PMS_P1;PMS_P2;Temp;Humidity;BMP_temperature;BMP_pressure;BME280_temperature;BME280_humidity;BME280_pressure;Samples;Min_cycle;Max_cycle;Signal;HPM_P1;HPM_P2
2024/04/05 00:00:55;;;;;;;14.27;2.00;;;10.80;99.90;;;;;;5022894;28;20044;-85
2024/04/05 00:03:21;;;;;;;20.92;2.63;;;10.80;99.90;;;;;;5034151;28;20033;-85
2024/04/05 00:05:46;;;;;;;19.38;2.35;;;10.80;99.90;;;;;;5038011;28;20029;-86
2024/04/05 00:08:12;;;;;;;17.10;1.92;;;10.90;99.90;;;;;;5036635;28;20133;-86
2024/04/05 00:10:38;;;;;;;20.02;2.17;;;10.90;99.90;;;;;;5037411;28;20469;-85
2024/04/05 00:13:04;;;;;;;18.08;3.15;;;10.90;99.90;;;;;;5035215;28;20029;-87
2024/04/05 00:15:30;;;;;;;19.33;1.73;;;10.90;99.90;;;;;;5032701;28;20057;-83
2024/04/05 00:17:56;;;;;;;20.27;2.08;;;10.90;99.90;;;;;;5039952;28;20028;-84
2024/04/05 00:20:21;;;;;;;16.60;1.70;;;10.80;99.90;;;;;;5035202;28;20033;-84
2024/04/05 00:22:47;;;;;;;19.88;2.45;;;10.90;99.90;;;;;;5036762;28;20095;-83
2024/04/05 00:25:12;;;;;;;16.90;2.30;;;10.90;99.90;;;;;;5033475;28;20037;-84
2024/04/05 00:27:38;;;;;;;29.08;3.25;;;10.90;99.90;;;;;;5032777;28;20029;-84
2024/04/05 00:30:07;;;;;;;21.55;2.42;;;10.90;99.90;;;;;;5030302;28;20025;-83
2024/04/05 00:32:32;;;;;;;19.13;2.10;;;11.00;99.90;;;;;;5037607;28;20021;-83
2024/04/05 00:34:58;;;;;;;19.85;2.58;;;11.10;99.90;;;;;;5031569;28;20022;-85
2024/04/05 00:37:24;;;;;;;15.98;1.73;;;11.10;99.90;;;;;;5032970;28;20033;-84
2024/04/05 00:39:49;;;;;;;18.10;1.70;;;11.20;99.90;;;;;;5038532;28;20108;-84
2024/04/05 00:42:15;;;;;;;21.35;2.40;;;11.30;99.90;;;;;;5027017;28;20030;-84
2024/04/05 00:44:40;;;;;;;16.80;1.77;;;11.30;99.90;;;;;;5036935;28;20033;-84
2024/04/05 00:47:06;;;;;;;24.35;2.35;;;11.40;99.90;;;;;;5049948;28;20123;-85
2024/04/05 00:49:32;;;;;;;18.42;2.10;;;11.40;99.90;;;;;;5034762;28;20022;-86
2024/04/05 00:51:59;;;;;;;17.65;2.78;;;11.40;99.90;;;;;;5036256;28;20055;-84
2024/04/05 00:54:25;;;;;;;17.52;1.80;;;11.50;99.90;;;;;;5033168;28;20025;-84
2024/04/05 00:56:52;;;;;;;23.77;2.42;;;11.50;99.90;;;;;;5028951;28;20492;-84
2024/04/05 00:59:18;;;;;;;20.20;2.00;;;11.50;99.90;;;;;;5029786;28;20064;-83
2024/04/05 01:01:44;;;;;;;19.30;2.42;;;11.60;99.90;;;;;;5034695;28;20095;-83
2024/04/05 01:04:11;;;;;;;21.98;2.53;;;11.50;99.90;;;;;;5029313;28;20052;-81
2024/04/05 01:06:37;;;;;;;16.75;2.50;;;11.60;99.90;;;;;;5027744;28;20034;-82
2024/04/05 01:09:05;;;;;;;29.23;3.03;;;11.60;99.90;;;;;;5023238;28;20038;-82
2024/04/05 01:11:32;;;;;;;23.67;2.83;;;11.60;99.90;;;;;;5028171;28;20038;-86
2024/04/05 01:13:58;;;;;;;22.27;2.50;;;11.60;99.90;;;;;;5024706;28;20032;-84
2024/04/05 01:16:24;;;;;;;20.55;1.75;;;11.70;99.90;;;;;;5036570;28;20026;-85
2024/04/05 01:18:52;;;;;;;20.65;1.98;;;11.70;99.90;;;;;;5041094;28;20026;-87
2024/04/05 01:21:20;;;;;;;24.10;2.67;;;11.70;99.90;;;;;;5034348;28;20052;-87
2024/04/05 01:23:46;;;;;;;19.70;2.08;;;11.70;99.90;;;;;;5030966;28;20071;-88
2024/04/05 01:26:11;;;;;;;18.83;1.75;;;11.70;99.90;;;;;;5031356;28;20444;-87
2024/04/05 01:28:37;;;;;;;30.88;3.38;;;11.70;99.90;;;;;;5034768;28;20029;-88
2024/04/05 01:31:03;;;;;;;17.10;2.13;;;11.80;99.90;;;;;;5033332;28;20132;-87
2024/04/05 01:33:28;;;;;;;19.48;2.08;;;11.70;99.90;;;;;;5032156;28;20040;-85
2024/04/05 01:35:54;;;;;;;21.25;1.90;;;11.80;99.90;;;;;;5031597;28;20103;-83
2024/04/05 01:38:20;;;;;;;23.65;3.00;;;11.80;99.90;;;;;;5031884;28;20029;-83
2024/04/05 01:40:45;;;;;;;22.50;2.10;;;11.70;99.90;;;;;;5041715;28;20033;-84
2024/04/05 01:43:11;;;;;;;24.63;2.67;;;11.70;99.90;;;;;;5029755;28;20044;-84
2024/04/05 01:45:36;;;;;;;26.38;3.60;;;11.70;99.90;;;;;;5024533;28;20014;-84
2024/04/05 01:48:02;;;;;;;19.85;2.95;;;11.60;99.90;;;;;;5027214;28;20025;-84
2024/04/05 01:50:28;;;;;;;21.38;1.80;;;11.60;99.90;;;;;;5031008;28;20026;-84
2024/04/05 01:52:53;;;;;;;15.55;1.77;;;11.60;99.90;;;;;;5032521;28;20025;-84
2024/04/05 01:55:19;;;;;;;22.08;2.58;;;11.50;99.90;;;;;;5034195;28;20032;-84
2024/04/05 01:57:44;;;;;;;14.82;1.92;;;11.50;99.90;;;;;;5029462;28;21736;-84
2024/04/05 02:00:11;;;;;;;12.98;1.83;;;11.50;99.90;;;;;;5011828;28;20049;-87
2024/04/05 02:02:36;;;;;;;15.25;1.65;;;11.40;99.90;;;;;;5032297;28;20075;-86
2024/04/05 02:05:02;;;;;;;19.42;3.03;;;11.40;99.90;;;;;;5007527;28;20021;-86
2024/04/05 02:07:28;;;;;;;20.38;2.45;;;11.40;99.90;;;;;;5030510;28;20040;-87
2024/04/05 02:09:54;;;;;;;18.30;2.05;;;11.40;99.90;;;;;;5029990;28;20551;-86
2024/04/05 02:12:21;;;;;;;18.85;1.70;;;11.30;99.90;;;;;;5038646;28;20044;-86
2024/04/05 02:14:47;;;;;;;18.27;1.35;;;11.30;99.90;;;;;;5031207;28;20216;-86
2024/04/05 02:17:13;;;;;;;17.23;2.03;;;11.30;99.90;;;;;;5029085;28;20371;-86
2024/04/05 02:19:39;;;;;;;19.25;2.10;;;11.30;99.90;;;;;;5030045;28;20045;-86
2024/04/05 02:22:05;;;;;;;16.40;2.22;;;11.20;99.90;;;;;;5016390;28;20760;-85
2024/04/05 02:24:31;;;;;;;21.30;2.45;;;11.30;99.90;;;;;;5013070;28;20025;-83
2024/04/05 02:26:57;;;;;;;16.33;2.10;;;11.30;99.90;;;;;;5031232;28;20028;-83
2024/04/05 02:29:23;;;;;;;16.27;2.22;;;11.30;99.90;;;;;;5033614;28;20029;-83
2024/04/05 02:31:48;;;;;;;21.98;3.15;;;11.20;99.90;;;;;;5035832;28;20031;-84
2024/04/05 02:34:14;;;;;;;17.70;2.13;;;11.30;99.90;;;;;;5037911;28;20029;-85
2024/04/05 02:36:40;;;;;;;20.27;1.75;;;11.30;99.90;;;;;;5029307;28;20428;-86
2024/04/05 02:39:07;;;;;;;22.30;2.08;;;11.20;99.90;;;;;;5040181;28;20029;-83
2024/04/05 02:41:33;;;;;;;15.60;1.50;;;11.20;99.90;;;;;;5026512;28;20048;-84
2024/04/05 02:43:59;;;;;;;20.92;2.05;;;11.20;99.90;;;;;;5030248;28;20022;-83
2024/04/05 02:46:25;;;;;;;19.15;2.00;;;11.20;99.90;;;;;;5029633;28;20034;-84
2024/04/05 02:48:51;;;;;;;20.85;2.75;;;11.20;99.90;;;;;;5030454;28;20108;-87
2024/04/05 02:51:18;;;;;;;17.42;1.77;;;11.20;99.90;;;;;;5032649;28;20080;-87
2024/04/05 02:53:44;;;;;;;19.40;2.50;;;11.20;99.90;;;;;;5037653;28;20026;-87
2024/04/05 02:56:10;;;;;;;22.73;2.15;;;11.20;99.90;;;;;;5029007;28;20580;-86
2024/04/05 02:58:36;;;;;;;20.98;2.25;;;11.20;99.90;;;;;;5031734;28;20033;-86
2024/04/05 03:01:02;;;;;;;18.42;1.98;;;11.20;99.90;;;;;;5036491;28;20037;-85
2024/04/05 03:03:27;;;;;;;22.95;2.72;;;11.20;99.90;;;;;;5037937;28;20033;-86
2024/04/05 03:05:53;;;;;;;15.68;2.25;;;11.30;99.90;;;;;;5031937;28;20031;-84
2024/04/05 03:08:19;;;;;;;17.50;1.95;;;11.30;99.90;;;;;;5032823;28;20045;-86
2024/04/05 03:10:44;;;;;;;20.80;2.25;;;11.30;99.90;;;;;;5029691;28;20029;-84
2024/04/05 03:13:10;;;;;;;13.63;1.50;;;11.30;99.90;;;;;;5029589;28;20395;-86
2024/04/05 03:15:35;;;;;;;21.52;2.83;;;11.40;99.90;;;;;;5037764;28;20053;-86
2024/04/05 03:18:02;;;;;;;18.25;2.10;;;11.40;99.90;;;;;;5031223;28;20033;-86
2024/04/05 03:20:28;;;;;;;15.10;1.83;;;11.30;99.90;;;;;;5034349;28;20060;-86
2024/04/05 03:22:54;;;;;;;14.88;2.58;;;11.40;99.90;;;;;;5041202;28;20048;-86
2024/04/05 03:25:20;;;;;;;26.15;2.28;;;11.40;99.90;;;;;;5044589;28;20111;-85
2024/04/05 03:27:47;;;;;;;18.45;2.90;;;11.40;99.90;;;;;;5035058;28;20108;-85
2024/04/05 03:30:12;;;;;;;23.08;2.35;;;11.40;99.90;;;;;;5029101;28;20021;-86
2024/04/05 03:32:38;;;;;;;17.92;2.53;;;11.50;99.90;;;;;;5027720;28;20039;-88
2024/04/05 03:35:06;;;;;;;17.33;1.98;;;11.40;99.90;;;;;;5035798;28;20036;-88
2024/04/05 03:37:32;;;;;;;22.05;2.35;;;11.50;99.90;;;;;;5030733;28;20018;-89
2024/04/05 03:39:57;;;;;;;20.77;2.20;;;11.50;99.90;;;;;;5035728;28;20087;-86
2024/04/05 03:42:23;;;;;;;19.73;2.00;;;11.50;99.90;;;;;;5037896;28;20029;-84
2024/04/05 03:44:48;;;;;;;19.60;2.80;;;11.50;99.90;;;;;;5028267;28;20026;-84
2024/04/05 03:47:14;;;;;;;20.92;2.78;;;11.60;99.90;;;;;;5015096;28;20035;-84
2024/04/05 03:49:41;;;;;;;19.73;2.53;;;11.60;99.90;;;;;;5033165;28;20025;-85
2024/04/05 03:52:06;;;;;;;21.35;2.58;;;11.60;99.90;;;;;;5024028;28;20025;-84
2024/04/05 03:54:32;;;;;;;18.73;1.80;;;11.60;99.90;;;;;;5025351;28;20091;-84
2024/04/05 03:56:58;;;;;;;22.05;3.03;;;11.70;99.90;;;;;;5030400;28;20108;-84
2024/04/05 03:59:24;;;;;;;17.08;2.13;;;11.70;99.90;;;;;;5030167;28;20022;-84
2024/04/05 04:01:53;;;;;;;15.23;2.20;;;11.70;99.90;;;;;;5019687;28;20081;-84
2024/04/05 04:04:19;;;;;;;14.60;1.88;;;11.70;99.90;;;;;;5028834;28;20033;-85
2024/04/05 04:06:45;;;;;;;14.65;1.65;;;11.70;99.90;;;;;;5028210;28;20033;-85
2024/04/05 04:09:11;;;;;;;16.90;1.73;;;11.70;99.90;;;;;;5021760;28;20132;-86
2024/04/05 04:11:37;;;;;;;21.55;2.72;;;11.70;99.90;;;;;;5042377;28;20374;-86
2024/04/05 04:14:03;;;;;;;17.15;1.90;;;11.70;99.90;;;;;;5034218;28;20033;-87
2024/04/05 04:16:29;;;;;;;18.30;2.28;;;11.70;99.90;;;;;;5032528;28;20018;-88
2024/04/05 04:18:55;;;;;;;21.45;2.60;;;11.70;99.90;;;;;;5030480;28;20025;-88
2024/04/05 04:21:24;;;;;;;13.90;2.15;;;11.70;99.90;;;;;;5042125;28;20048;-88
2024/04/05 04:23:53;;;;;;;15.70;2.25;;;11.70;99.90;;;;;;5037510;28;20471;-87
2024/04/05 04:26:22;;;;;;;22.35;3.05;;;11.70;99.90;;;;;;5030581;28;20041;-87
2024/04/05 04:28:48;;;;;;;15.93;1.98;;;11.60;99.90;;;;;;5031457;28;20457;-88
2024/04/05 04:31:21;;;;;;;15.27;1.73;;;11.60;99.90;;;;;;5036306;28;20037;-87
2024/04/05 04:33:48;;;;;;;16.98;2.15;;;11.60;99.90;;;;;;5029485;28;20073;-88
2024/04/05 04:36:13;;;;;;;15.52;2.08;;;11.60;99.90;;;;;;5034967;28;20148;-89
2024/04/05 04:38:39;;;;;;;16.52;2.17;;;11.50;99.90;;;;;;5033096;28;20049;-89
2024/04/05 04:41:05;;;;;;;9.77;1.63;;;11.60;99.90;;;;;;5028360;28;20044;-88
2024/04/05 04:43:31;;;;;;;15.25;2.17;;;11.60;99.90;;;;;;5016029;28;20164;-88
2024/04/05 04:45:58;;;;;;;14.43;2.58;;;11.60;99.90;;;;;;5022125;28;20036;-89
2024/04/05 04:48:25;;;;;;;18.98;2.92;;;11.60;99.90;;;;;;5016911;28;20060;-88
2024/04/05 04:50:54;;;;;;;17.92;3.08;;;11.60;99.90;;;;;;5037551;28;20037;-88
2024/04/05 04:53:19;;;;;;;17.95;1.98;;;11.60;99.90;;;;;;5032582;28;20393;-90
2024/04/05 04:55:45;;;;;;;15.60;2.67;;;11.70;99.90;;;;;;5036432;28;20032;-90
2024/04/05 04:58:11;;;;;;;16.17;2.05;;;11.70;99.90;;;;;;5031010;28;20056;-88
2024/04/05 05:00:37;;;;;;;24.27;2.75;;;11.70;99.90;;;;;;5014406;28;20041;-91
2024/04/05 05:03:03;;;;;;;18.95;2.88;;;11.70;99.90;;;;;;5039243;28;20543;-90
2024/04/05 05:05:29;;;;;;;18.05;3.08;;;11.70;99.90;;;;;;5041365;28;20029;-90
2024/04/05 05:07:55;;;;;;;23.05;2.97;;;11.80;99.90;;;;;;5042145;28;20050;-90
2024/04/05 05:10:21;;;;;;;13.32;2.35;;;11.80;99.90;;;;;;5026783;28;20397;-92
2024/04/05 05:12:46;;;;;;;16.30;2.50;;;11.80;99.90;;;;;;5034275;28;20104;-86
2024/04/05 05:15:12;;;;;;;16.27;1.70;;;11.80;99.90;;;;;;5010551;28;20072;-84
2024/04/05 05:17:38;;;;;;;18.45;1.85;;;11.80;99.90;;;;;;5007716;28;20462;-84
2024/04/05 05:20:07;;;;;;;11.68;1.90;;;11.80;99.90;;;;;;5030684;28;20501;-86
2024/04/05 05:22:32;;;;;;;14.90;1.95;;;11.80;99.90;;;;;;5006377;28;20033;-88
2024/04/05 05:24:58;;;;;;;18.38;2.40;;;11.90;99.90;;;;;;5035365;28;20027;-88
2024/04/05 05:27:24;;;;;;;13.90;2.17;;;11.90;99.90;;;;;;5020624;28;20437;-87
2024/04/05 05:29:50;;;;;;;14.35;2.15;;;11.90;99.90;;;;;;5025414;28;20079;-88
2024/04/05 05:32:15;;;;;;;18.95;2.30;;;11.90;99.90;;;;;;5038992;28;20060;-87
2024/04/05 05:34:41;;;;;;;13.48;2.00;;;12.00;99.90;;;;;;5035215;28;20109;-87
2024/04/05 05:37:07;;;;;;;19.02;2.50;;;12.00;99.90;;;;;;5033945;28;20071;-87
2024/04/05 05:39:33;;;;;;;11.40;1.55;;;12.10;99.90;;;;;;5032588;28;20052;-88
2024/04/05 05:41:59;;;;;;;14.35;2.40;;;12.10;99.90;;;;;;5047607;28;20041;-88
2024/04/05 05:44:25;;;;;;;19.70;2.90;;;12.20;99.90;;;;;;5044739;28;20068;-87
2024/04/05 05:46:51;;;;;;;14.13;1.80;;;12.30;99.90;;;;;;5023621;28;20037;-88
2024/04/05 05:49:17;;;;;;;23.02;3.20;;;12.30;99.90;;;;;;5024562;28;20029;-86
2024/04/05 05:51:42;;;;;;;11.52;2.80;;;12.30;99.90;;;;;;5033745;28;20033;-86
2024/04/05 05:54:08;;;;;;;12.10;2.22;;;12.30;99.90;;;;;;5034854;28;20097;-85
2024/04/05 05:56:33;;;;;;;15.98;3.13;;;12.40;99.90;;;;;;5022912;28;20390;-89
2024/04/05 05:58:59;;;;;;;12.25;2.05;;;12.40;99.90;;;;;;5030218;28;20152;-85
2024/04/05 06:01:25;;;;;;;12.90;2.20;;;12.50;99.90;;;;;;5028033;28;20040;-85
2024/04/05 06:03:50;;;;;;;17.40;2.63;;;12.50;99.90;;;;;;5030968;28;20051;-87
2024/04/05 06:06:16;;;;;;;11.95;2.40;;;12.50;99.90;;;;;;5023507;28;20060;-85
2024/04/05 06:08:42;;;;;;;11.63;2.22;;;12.60;99.90;;;;;;5021773;28;20045;-87
2024/04/05 06:11:08;;;;;;;9.77;2.13;;;12.70;99.90;;;;;;5028482;28;20061;-86
2024/04/05 06:13:33;;;;;;;14.18;2.20;;;12.80;99.90;;;;;;5024623;28;20069;-87
2024/04/05 06:15:59;;;;;;;14.60;2.67;;;12.80;99.90;;;;;;5027400;28;20026;-86
2024/04/05 06:18:27;;;;;;;13.02;2.60;;;12.90;99.90;;;;;;5027431;28;20030;-86
2024/04/05 06:20:57;;;;;;;15.00;2.45;;;13.00;99.90;;;;;;5022271;28;20037;-85
2024/04/05 06:23:24;;;;;;;15.10;2.83;;;13.00;99.90;;;;;;5033241;28;20092;-86
2024/04/05 06:25:55;;;;;;;14.70;2.58;;;13.00;99.90;;;;;;5024356;28;20021;-85
2024/04/05 06:28:21;;;;;;;10.55;2.08;;;13.00;99.90;;;;;;5018513;28;20026;-87
2024/04/05 06:30:46;;;;;;;11.65;2.25;;;13.10;99.90;;;;;;5024317;28;20159;-88
2024/04/05 06:33:12;;;;;;;15.60;2.95;;;13.10;99.90;;;;;;5015256;28;20060;-87
2024/04/05 06:35:38;;;;;;;14.52;2.90;;;13.20;99.90;;;;;;5013393;28;20136;-85
2024/04/05 06:38:04;;;;;;;12.63;2.28;;;13.20;99.90;;;;;;4997815;28;20033;-86
2024/04/05 06:40:29;;;;;;;13.85;2.45;;;13.20;99.90;;;;;;5015382;28;20026;-87
2024/04/05 06:42:55;;;;;;;11.30;2.67;;;13.20;99.90;;;;;;5011588;28;20034;-88
2024/04/05 06:45:20;;;;;;;11.10;2.40;;;13.30;99.90;;;;;;5009640;28;20065;-87
2024/04/05 06:47:46;;;;;;;14.13;2.55;;;13.30;99.90;;;;;;5009408;28;20042;-88
2024/04/05 06:50:12;;;;;;;10.35;1.95;;;13.40;99.90;;;;;;5010446;28;20394;-89
2024/04/05 06:52:37;;;;;;;9.93;2.42;;;13.40;99.90;;;;;;5010079;28;20065;-90
2024/04/05 06:55:03;;;;;;;11.80;2.53;;;13.50;99.90;;;;;;5021146;28;20533;-88
2024/04/05 06:57:29;;;;;;;13.15;2.30;;;13.60;99.90;;;;;;5028606;28;20025;-87
2024/04/05 06:59:56;;;;;;;16.98;3.03;;;13.60;99.90;;;;;;5030823;28;20065;-88
2024/04/05 07:02:22;;;;;;;11.52;3.42;;;13.70;99.90;;;;;;5015008;28;20072;-87
2024/04/05 07:04:49;;;;;;;14.55;2.28;;;13.70;99.90;;;;;;5014693;28;20033;-87
2024/04/05 07:07:14;;;;;;;13.60;2.50;;;13.80;99.90;;;;;;5014615;28;20029;-87
2024/04/05 07:09:40;;;;;;;11.60;2.72;;;13.80;99.90;;;;;;5050690;28;20053;-87
2024/04/05 07:12:07;;;;;;;10.00;3.20;;;13.90;99.90;;;;;;5051610;28;20020;-87
2024/04/05 07:14:33;;;;;;;12.20;2.20;;;13.90;99.90;;;;;;5031667;28;20093;-88
2024/04/05 07:16:58;;;;;;;15.20;3.42;;;14.00;99.90;;;;;;5033729;28;20097;-86
2024/04/05 07:19:24;;;;;;;9.82;2.05;;;14.00;99.90;;;;;;5032057;28;20029;-87
2024/04/05 07:21:50;;;;;;;10.15;2.05;;;14.10;99.90;;;;;;5031882;28;20030;-88
2024/04/05 07:24:16;;;;;;;13.10;2.97;;;14.10;99.90;;;;;;5032371;28;20083;-88
2024/04/05 07:26:44;;;;;;;15.00;2.33;;;14.10;99.90;;;;;;5038305;28;20468;-87
2024/04/05 07:29:10;;;;;;;12.80;2.25;;;14.20;99.90;;;;;;5051353;28;20021;-88
2024/04/05 07:31:36;;;;;;;8.75;2.28;;;14.20;99.90;;;;;;5042756;28;20447;-87
2024/04/05 07:34:07;;;;;;;12.15;2.15;;;14.20;99.90;;;;;;5044199;28;20127;-88
2024/04/05 07:36:33;;;;;;;9.45;2.50;;;14.30;99.90;;;;;;5031312;28;20026;-88
2024/04/05 07:38:59;;;;;;;12.95;2.10;;;14.30;99.90;;;;;;5052026;28;20025;-88
2024/04/05 07:41:25;;;;;;;8.80;1.83;;;14.30;99.90;;;;;;5015888;28;20034;-87
2024/04/05 07:43:50;;;;;;;9.90;2.38;;;14.30;99.90;;;;;;5041557;28;20033;-85
2024/04/05 07:46:16;;;;;;;7.43;1.63;;;14.30;99.90;;;;;;5035254;28;20381;-86
2024/04/05 07:48:42;;;;;;;13.38;2.42;;;14.30;99.90;;;;;;5020743;28;20030;-86
2024/04/05 07:51:10;;;;;;;8.95;1.65;;;14.30;99.90;;;;;;5033998;28;20099;-85
2024/04/05 07:53:36;;;;;;;10.40;1.45;;;14.40;99.90;;;;;;5037279;28;20092;-85
2024/04/05 07:56:03;;;;;;;10.52;1.75;;;14.40;99.90;;;;;;5041887;28;20477;-87
2024/04/05 07:58:29;;;;;;;7.63;1.42;;;14.40;99.90;;;;;;5053358;28;20025;-86
2024/04/05 08:00:54;;;;;;;11.50;1.63;;;14.40;99.90;;;;;;5033360;28;20069;-86
2024/04/05 08:03:20;;;;;;;8.30;1.95;;;14.40;99.90;;;;;;5048802;28;20036;-85
2024/04/05 08:05:46;;;;;;;9.65;1.70;;;14.40;99.90;;;;;;5049699;28;20049;-86
2024/04/05 08:08:12;;;;;;;8.07;1.27;;;14.50;99.90;;;;;;5037488;28;20053;-86
2024/04/05 08:10:38;;;;;;;11.40;2.33;;;14.50;99.90;;;;;;5048776;28;20485;-85
2024/04/05 08:13:04;;;;;;;13.82;1.80;;;14.50;99.90;;;;;;5047154;28;20037;-85
2024/04/05 08:15:30;;;;;;;8.30;2.00;;;14.50;99.90;;;;;;5045192;28;20036;-84
2024/04/05 08:17:59;;;;;;;7.78;1.90;;;14.40;99.90;;;;;;5010313;28;20062;-86
2024/04/05 08:20:25;;;;;;;10.15;1.95;;;14.50;99.90;;;;;;5019744;28;20037;-86
2024/04/05 08:22:51;;;;;;;10.65;2.28;;;14.50;99.90;;;;;;5027855;28;20056;-89
2024/04/05 08:25:17;;;;;;;11.40;1.98;;;14.40;99.90;;;;;;5037275;28;20018;-87
2024/04/05 08:27:44;;;;;;;8.07;1.40;;;14.40;99.90;;;;;;5038114;28;20026;-85
2024/04/05 08:30:12;;;;;;;10.32;1.30;;;14.40;99.90;;;;;;5012922;28;20464;-87
2024/04/05 08:32:40;;;;;;;10.23;1.10;;;14.40;99.90;;;;;;5052825;28;20114;-87
2024/04/05 08:35:06;;;;;;;12.48;1.10;;;14.40;99.90;;;;;;5039456;28;20017;-86
2024/04/05 08:37:32;;;;;;;5.03;1.30;;;14.40;99.90;;;;;;5034927;28;20477;-86
2024/04/05 08:39:58;;;;;;;6.72;0.90;;;14.50;99.90;;;;;;5044986;28;20069;-86
2024/04/05 08:42:25;;;;;;;4.43;0.77;;;14.50;99.90;;;;;;5056378;28;20167;-86
2024/04/05 08:44:50;;;;;;;7.38;0.90;;;14.60;99.90;;;;;;5041839;28;20045;-86
2024/04/05 08:47:20;;;;;;;4.47;1.20;;;14.60;99.90;;;;;;5039564;28;20103;-87
2024/04/05 08:49:51;;;;;;;11.20;1.95;;;14.60;99.90;;;;;;5043114;28;20021;-85
2024/04/05 08:52:17;;;;;;;9.00;1.08;;;14.60;99.90;;;;;;5040122;28;20112;-86
2024/04/05 08:54:43;;;;;;;8.38;0.88;;;14.70;99.90;;;;;;5037133;28;20410;-87
2024/04/05 08:57:09;;;;;;;5.07;1.02;;;14.70;99.90;;;;;;5056097;28;20381;-86
2024/04/05 08:59:36;;;;;;;8.40;1.00;;;14.80;99.90;;;;;;5048441;28;20021;-87
2024/04/05 09:02:02;;;;;;;5.25;1.00;;;14.80;99.90;;;;;;5035878;28;20038;-87
2024/04/05 09:04:28;;;;;;;6.47;0.95;;;14.80;99.90;;;;;;5024854;28;20032;-88
2024/04/05 09:06:55;;;;;;;9.02;1.13;;;14.80;99.90;;;;;;5030581;28;20116;-88
2024/04/05 09:09:28;;;;;;;7.07;1.00;;;14.70;99.90;;;;;;5034635;28;20041;-89
2024/04/05 09:12:14;;;;;;;6.13;0.80;;;14.70;99.90;;;;;;5023948;28;20038;-89
2024/04/05 09:14:41;;;;;;;8.02;1.35;;;14.60;99.90;;;;;;5041805;28;20032;-89
2024/04/05 09:17:13;;;;;;;7.40;1.50;;;14.60;99.90;;;;;;5033668;28;20423;-88
2024/04/05 09:19:39;;;;;;;5.82;0.85;;;14.60;99.90;;;;;;5030753;28;20026;-88
2024/04/05 09:22:05;;;;;;;3.63;0.88;;;14.60;99.90;;;;;;5034691;28;20044;-87
2024/04/05 09:24:31;;;;;;;3.70;0.98;;;14.60;99.90;;;;;;5028958;28;20361;-87
2024/04/05 09:27:03;;;;;;;5.50;0.88;;;14.60;99.90;;;;;;5026014;28;20128;-88
2024/04/05 09:29:29;;;;;;;4.93;1.00;;;14.50;99.90;;;;;;5016310;28;20032;-89
2024/04/05 09:31:55;;;;;;;3.58;0.95;;;14.50;99.90;;;;;;5027170;28;20018;-87
2024/04/05 09:34:25;;;;;;;4.82;0.65;;;14.50;99.90;;;;;;4997285;28;20393;-88
2024/04/05 09:36:52;;;;;;;3.85;0.68;;;14.50;99.90;;;;;;5022129;28;20021;-88
2024/04/05 09:39:21;;;;;;;3.80;0.55;;;14.50;99.90;;;;;;5025336;28;20049;-88
2024/04/05 09:41:48;;;;;;;6.13;0.88;;;14.50;99.90;;;;;;5032358;28;20033;-88
2024/04/05 09:44:16;;;;;;;6.95;1.08;;;14.50;99.90;;;;;;5031335;28;20021;-87
2024/04/05 09:46:43;;;;;;;7.30;0.88;;;14.50;99.90;;;;;;5026990;28;20087;-86
2024/04/05 09:49:11;;;;;;;6.53;0.90;;;14.40;99.90;;;;;;5022521;28;20025;-88
2024/04/05 09:51:48;;;;;;;4.85;0.68;;;14.40;99.90;;;;;;5029770;28;20036;-87
2024/04/05 09:54:15;;;;;;;5.68;0.93;;;14.40;99.90;;;;;;5045949;28;20385;-87
2024/04/05 09:56:45;;;;;;;7.93;0.90;;;14.50;99.90;;;;;;5046922;28;20040;-87
2024/04/05 09:59:16;;;;;;;5.70;0.90;;;14.50;99.90;;;;;;5018746;28;20103;-88
2024/04/05 10:01:45;;;;;;;5.65;0.80;;;14.60;99.90;;;;;;5034177;28;20063;-88
2024/04/05 10:04:12;;;;;;;5.45;1.00;;;14.60;99.90;;;;;;5029122;28;24151;-88
2024/04/05 10:06:39;;;;;;;8.68;0.80;;;14.70;99.90;;;;;;5034080;28;20101;-89
2024/04/05 10:09:21;;;;;;;7.30;0.95;;;14.80;99.90;;;;;;5033968;28;20037;-89
2024/04/05 10:11:50;;;;;;;5.07;1.42;;;15.00;99.90;;;;;;5030693;28;20083;-88
2024/04/05 10:14:23;;;;;;;4.57;0.82;;;15.10;99.90;;;;;;5032833;28;20091;-89
2024/04/05 10:16:49;;;;;;;5.95;0.93;;;15.30;99.90;;;;;;5035059;28;20017;-90
2024/04/05 10:19:15;;;;;;;5.82;0.90;;;15.40;99.90;;;;;;5044474;28;20041;-90
2024/04/05 10:21:45;;;;;;;5.00;0.88;;;15.60;99.90;;;;;;5026521;28;20037;-90
2024/04/05 10:24:11;;;;;;;6.03;0.75;;;15.90;99.90;;;;;;5039406;28;20017;-90
2024/04/05 10:26:38;;;;;;;5.72;0.70;;;16.00;99.90;;;;;;5035639;28;20470;-90
2024/04/05 10:29:06;;;;;;;3.30;0.60;;;16.00;99.90;;;;;;5041568;28;20068;-89
2024/04/05 10:31:38;;;;;;;5.32;0.82;;;16.00;99.90;;;;;;5039313;28;20037;-90
2024/04/05 10:34:07;;;;;;;4.78;1.00;;;16.00;99.90;;;;;;5029900;28;20546;-91
2024/04/05 10:36:37;;;;;;;3.97;0.85;;;16.00;99.90;;;;;;5037191;28;20030;-90
2024/04/05 10:39:17;;;;;;;4.57;0.90;;;16.00;99.90;;;;;;5023013;28;20025;-90
2024/04/05 10:41:43;;;;;;;2.92;0.70;;;16.10;99.90;;;;;;5034908;28;20097;-90
2024/04/05 10:44:09;;;;;;;4.45;0.57;;;16.30;99.90;;;;;;5050212;28;20603;-90
2024/04/05 10:46:37;;;;;;;6.07;1.08;;;16.40;99.90;;;;;;5023643;28;20056;-91
2024/04/05 10:49:02;;;;;;;4.22;0.73;;;16.60;99.90;;;;;;5029740;28;20018;-89
2024/04/05 10:51:28;;;;;;;6.30;0.50;;;16.60;99.90;;;;;;5035237;28;20056;-91
2024/04/05 10:53:54;;;;;;;4.05;0.73;;;16.70;99.90;;;;;;5039072;28;20032;-89
2024/04/05 10:56:20;;;;;;;5.47;1.00;;;16.70;99.90;;;;;;5037886;28;20041;-91
2024/04/05 10:58:46;;;;;;;6.57;1.33;;;16.80;99.90;;;;;;5038399;28;20029;-91
2024/04/05 11:01:14;;;;;;;6.13;0.50;;;16.80;99.90;;;;;;5036193;28;20037;-90
2024/04/05 11:03:39;;;;;;;2.70;0.57;;;16.80;99.90;;;;;;5027162;28;20075;-90
2024/04/05 11:06:05;;;;;;;3.35;0.50;;;16.80;99.90;;;;;;5035116;28;20021;-90
2024/04/05 11:08:32;;;;;;;3.50;0.60;;;16.90;99.90;;;;;;5025823;28;20037;-90
2024/04/05 11:10:57;;;;;;;4.82;0.40;;;16.90;99.90;;;;;;5033757;28;20232;-90
2024/04/05 11:13:26;;;;;;;4.68;0.40;;;17.00;99.90;;;;;;5035014;28;20051;-90
2024/04/05 11:16:02;;;;;;;3.05;0.55;;;17.00;99.90;;;;;;5044227;28;20477;-91
2024/04/05 11:18:35;;;;;;;2.00;0.40;;;17.10;99.90;;;;;;5029662;28;20032;-90
2024/04/05 11:21:01;;;;;;;2.95;0.70;;;17.20;99.90;;;;;;5030809;28;20037;-90
2024/04/05 11:23:27;;;;;;;2.97;0.60;;;17.30;99.90;;;;;;5029311;28;20021;-90
2024/04/05 11:25:53;;;;;;;3.03;0.40;;;17.40;99.90;;;;;;5030647;28;20030;-90
2024/04/05 11:28:22;;;;;;;3.67;0.50;;;17.40;99.90;;;;;;5032005;28;20095;-90
2024/04/05 11:30:48;;;;;;;2.88;0.40;;;17.40;99.90;;;;;;5032539;28;20022;-90
2024/04/05 11:33:14;;;;;;;2.78;0.30;;;17.40;99.90;;;;;;5026011;28;20043;-90
2024/04/05 11:35:40;;;;;;;4.15;0.40;;;17.30;99.90;;;;;;5028867;28;20520;-89
2024/04/05 11:38:06;;;;;;;3.80;0.63;;;17.40;99.90;;;;;;5016410;28;20029;-90
2024/04/05 11:40:32;;;;;;;3.00;0.40;;;17.40;99.90;;;;;;5028695;28;20034;-90
2024/04/05 11:42:58;;;;;;;4.60;0.50;;;17.40;99.90;;;;;;5047738;28;20041;-90
2024/04/05 11:45:23;;;;;;;4.22;0.40;;;17.30;99.90;;;;;;5020799;28;20362;-90
2024/04/05 11:47:50;;;;;;;3.03;0.40;;;17.30;99.90;;;;;;5046148;28;20076;-90
2024/04/05 11:50:16;;;;;;;2.55;0.40;;;17.30;99.90;;;;;;5044985;28;20021;-89
2024/04/05 11:52:42;;;;;;;5.03;0.60;;;17.20;99.90;;;;;;5051063;28;20451;-90
2024/04/05 11:55:08;;;;;;;2.60;0.40;;;17.20;99.90;;;;;;5055479;28;20111;-90
2024/04/05 11:57:34;;;;;;;4.45;0.32;;;17.20;99.90;;;;;;5030204;28;20104;-90
2024/04/05 12:00:04;;;;;;;2.50;0.40;;;17.00;99.90;;;;;;5051699;28;20061;-90
2024/04/05 12:02:30;;;;;;;4.43;0.50;;;16.90;99.90;;;;;;5035577;28;20120;-89
2024/04/05 12:04:55;;;;;;;1.80;0.50;;;16.80;99.90;;;;;;5022194;28;20545;-90
2024/04/05 12:07:21;;;;;;;4.13;0.50;;;16.60;99.90;;;;;;5044595;28;20036;-89
2024/04/05 12:09:47;;;;;;;1.98;0.50;;;16.60;99.90;;;;;;5045335;28;20056;-90
2024/04/05 12:12:13;;;;;;;2.58;0.40;;;16.50;99.90;;;;;;5048659;28;20033;-90
2024/04/05 12:14:38;;;;;;;4.45;0.57;;;16.40;99.90;;;;;;5055207;28;20052;-90
2024/04/05 12:17:04;;;;;;;2.65;0.50;;;16.40;99.90;;;;;;5038916;28;20029;-91
2024/04/05 12:19:30;;;;;;;2.85;0.50;;;16.20;99.90;;;;;;5053748;28;20060;-90
2024/04/05 12:21:56;;;;;;;4.97;0.40;;;16.10;99.90;;;;;;5049510;28;20060;-90
2024/04/05 12:24:22;;;;;;;3.15;0.60;;;16.10;99.90;;;;;;5054820;28;20091;-90
2024/04/05 12:26:47;;;;;;;4.95;0.50;;;16.10;99.90;;;;;;5046553;28;20611;-90
2024/04/05 12:29:13;;;;;;;2.47;0.50;;;16.20;99.90;;;;;;5054852;28;20060;-90
2024/04/05 12:31:39;;;;;;;2.50;0.30;;;16.30;99.90;;;;;;5046910;28;20029;-90
2024/04/05 12:34:05;;;;;;;4.88;0.30;;;16.30;99.90;;;;;;5050847;28;20075;-90
2024/04/05 12:36:32;;;;;;;2.25;0.32;;;16.40;99.90;;;;;;5045449;28;20021;-90